createdAt,value
2022-10-22T08:00:56.281Z,1.75
2022-10-22T08:03:25.081Z,2.00
2022-10-22T08:05:54.338Z,1.85
2022-10-22T08:08:25.915Z,1.83
2022-10-22T08:11:00.339Z,1.50
2022-10-22T08:13:30.796Z,1.15
2022-10-22T08:16:01.879Z,0.95
2022-10-22T08:18:31.360Z,1.52
2022-10-22T08:21:00.158Z,1.27
2022-10-22T08:23:29.160Z,1.17
2022-10-22T08:25:59.920Z,1.00
2022-10-22T08:28:29.999Z,1.23
2022-10-22T08:30:58.736Z,1.50
2022-10-22T08:33:28.858Z,1.33
2022-10-22T08:35:57.763Z,1.50
2022-10-22T08:38:26.432Z,1.42
2022-10-22T08:40:58.679Z,1.80
2022-10-22T08:43:50.169Z,2.08
2022-10-22T08:46:38.389Z,2.03
2022-10-22T08:49:17.498Z,2.03
2022-10-22T08:51:46.599Z,2.40
2022-10-22T08:54:23.968Z,2.70
2022-10-22T08:57:01.160Z,2.08
2022-10-22T08:59:37.678Z,2.00
2022-10-22T09:02:14.001Z,2.28
2022-10-22T09:04:51.359Z,2.38
2022-10-22T09:07:20.801Z,1.73
2022-10-22T09:09:53.138Z,3.17
2022-10-22T09:12:26.061Z,2.15
2022-10-22T09:14:55.291Z,2.00
2022-10-22T09:17:34.038Z,1.80
2022-10-22T09:20:10.779Z,1.77
2022-10-22T09:22:46.404Z,1.75
2022-10-22T09:27:52.678Z,2.00
2022-10-22T09:30:23.967Z,1.70
2022-10-22T09:32:56.118Z,1.88
2022-10-22T09:35:26.199Z,1.58
2022-10-22T09:37:57.679Z,2.00
2022-10-22T09:40:26.380Z,1.65
2022-10-22T09:42:55.014Z,1.80
2022-10-22T09:45:27.085Z,1.50
2022-10-22T09:48:14.238Z,1.33
2022-10-22T09:50:46.878Z,1.60
2022-10-22T09:53:19.973Z,1.48
2022-10-22T09:55:53.084Z,1.38
2022-10-22T09:58:22.432Z,1.00
2022-10-22T10:00:54.959Z,1.08
2022-10-22T10:03:25.584Z,1.10
2022-10-22T10:06:01.547Z,1.10
2022-10-22T10:08:33.739Z,1.05
2022-10-22T10:11:08.039Z,1.02
2022-10-22T10:13:48.239Z,1.05
2022-10-22T10:16:39.030Z,1.40
2022-10-22T10:19:25.967Z,1.17
2022-10-22T10:22:06.672Z,1.10
2022-10-22T10:24:58.958Z,1.10
2022-10-22T10:27:32.477Z,1.15
2022-10-22T10:30:07.399Z,1.35
2022-10-22T10:32:53.170Z,0.80
2022-10-22T10:35:27.959Z,1.13
2022-10-22T10:38:10.496Z,0.98
2022-10-22T10:40:45.078Z,1.05
2022-10-22T10:43:20.478Z,1.43
2022-10-22T10:48:38.359Z,2.33
2022-10-22T10:51:18.390Z,1.33
2022-10-22T10:54:09.151Z,1.33
2022-10-22T10:56:42.711Z,1.10
2022-10-22T10:59:33.713Z,1.20
2022-10-22T11:02:26.310Z,1.13
2022-10-22T11:05:39.751Z,1.25
2022-10-22T11:08:14.973Z,1.00
2022-10-22T11:10:48.601Z,1.10
2022-10-22T11:13:23.838Z,1.00
2022-10-22T11:15:59.151Z,1.25
2022-10-22T11:21:18.838Z,1.35
2022-10-22T11:23:52.458Z,0.90
2022-10-22T11:26:30.562Z,1.17
2022-10-22T11:29:02.952Z,1.05
2022-10-22T11:31:33.030Z,0.90
2022-10-22T11:34:32.032Z,0.90
2022-10-22T11:37:02.199Z,0.98
2022-10-22T11:39:35.998Z,0.90
2022-10-22T11:42:10.681Z,1.17
2022-10-22T11:47:22.281Z,2.33
2022-10-22T11:49:59.688Z,1.63
2022-10-22T11:52:41.598Z,1.95
2022-10-22T11:55:36.046Z,1.25
2022-10-22T11:58:32.131Z,2.38
2022-10-22T12:01:22.754Z,1.73
2022-10-22T12:03:53.030Z,4.43
2022-10-22T12:06:24.510Z,3.80
2022-10-22T12:09:00.153Z,3.03
2022-10-22T12:11:36.460Z,3.65
2022-10-22T12:14:21.800Z,2.33
2022-10-22T12:16:56.854Z,1.27
2022-10-22T12:19:31.260Z,3.58
2022-10-22T12:22:03.473Z,3.92
2022-10-22T12:24:35.548Z,2.50
2022-10-22T12:27:04.439Z,1.48
2022-10-22T12:29:34.953Z,1.23
2022-10-22T12:32:06.030Z,1.30
2022-10-22T12:34:34.723Z,1.00
2022-10-22T12:37:07.236Z,1.40
2022-10-22T12:39:35.999Z,1.50
2022-10-22T12:42:07.550Z,2.30
2022-10-22T12:44:51.360Z,1.20
2022-10-22T12:47:20.453Z,1.40
2022-10-22T12:49:51.803Z,0.90
2022-10-22T12:52:22.710Z,1.50
2022-10-22T12:54:54.995Z,1.55
2022-10-22T12:57:24.898Z,1.20
2022-10-22T12:59:55.153Z,1.17
2022-10-22T13:02:25.969Z,1.42
2022-10-22T13:05:27.447Z,1.20
2022-10-22T13:08:04.321Z,1.38
2022-10-22T13:10:36.033Z,1.10
2022-10-22T13:13:07.030Z,1.10
2022-10-22T13:15:40.249Z,1.20
2022-10-22T13:18:18.759Z,1.23
2022-10-22T13:20:56.207Z,1.33
2022-10-22T13:23:27.018Z,1.17
2022-10-22T13:26:04.914Z,1.30
2022-10-22T13:28:34.279Z,1.27
2022-10-22T13:31:11.605Z,1.00
2022-10-22T13:33:42.594Z,1.00
2022-10-22T13:36:16.078Z,0.90
2022-10-22T13:38:45.678Z,1.85
2022-10-22T13:41:22.113Z,1.40
2022-10-22T13:43:51.431Z,1.30
2022-10-22T13:46:22.763Z,1.05
2022-10-22T13:48:53.679Z,1.05
2022-10-22T13:51:24.159Z,0.93
2022-10-22T13:53:54.799Z,1.20
2022-10-22T13:56:24.112Z,1.25
2022-10-22T13:58:52.967Z,1.25
2022-10-22T14:01:26.638Z,1.00
2022-10-22T14:03:58.158Z,1.50
2022-10-22T14:06:29.238Z,1.40
2022-10-22T14:09:00.586Z,1.42
2022-10-22T14:11:31.390Z,2.03
2022-10-22T14:14:00.567Z,2.47
2022-10-22T14:16:32.600Z,2.65
